Terminal Aerodrome Forecast
Issued by NWS

Home | Current Version | Previous Version | Text Only | Print | Product List | Glossary On
Versions: 1 2 3 4 5 6 7 8 9 10 11 12 13 14 15
000
FTUS42 KKEY 051750
TAFMTH
TAF
KMTH 051750Z 0518/0618 11008G13KT P6SM SCT025=

USA.gov is the U.S. government's official web portal to all federal, state and local government web resources and services.